Latest Coastal Weather Observations for Port Lincoln Airport

IDS60701

Issued at 1:41 am CST Saturday 28 May 2016 (issued every 10 minutes, with the page automatically refreshed every 10 minutes)

About coastal observations | Map of coastal stations | Coastal observations for SA | Marine services | Other Formats
Station Details ID: 018192 Name: PORT LINCOLN AWS Lat: -34.60 Lon: 135.88 Height: 8.5 m
Data from the previous 72 hours. | See also: Recent months at Port Lincoln Airport
Date/Time
CST
Temp

°C
Wind Pressure Rain
since 9am
mm
Weather Cloud Vis
km
Sea
Height
m
Swell
Dir
 
Speed
knots
Gust
knots
hPa Trend Height
m
Period
s
Dir
28/01:30am 12.3 SW 12 16 1013.5 - 7.0 - Partly cloudy 10 - - - -
28/01:00am 11.9 SSW 9 12 1013.4 - 7.0 - Partly cloudy 10 - - - -
28/12:30am 12.6 SW 12 16 1013.5 - 7.0 - Partly cloudy 10 - - - -
28/12:00am 12.2 WSW 15 20 1012.9 - 7.0 Recent precip. Mostly cloudy 10 - - - -
 
Date/Time
CST
Temp

°C
Wind Pressure Rain
since 9am
mm
Weather Cloud Vis
km
Sea
Height
m
Swell
Dir
 
Speed
knots
Gust
knots
hPa Trend Height
m
Period
s
Dir
27/11:30pm 12.3 WSW 16 22 1012.7 - 7.0 - Partly cloudy 10 - - - -
27/11:00pm 12.4 WSW 17 21 1012.5 - 6.8 - Partly cloudy 8 - - - -
27/10:45pm 12.3 W 19 27 1012.2 - 6.8 - Partly cloudy 5 - - - -
27/10:30pm 11.8 W 17 23 1012.4 - 6.6 - Partly cloudy 10 - - - -
27/10:29pm 11.9 W 18 23 1012.4 - 6.6 - Partly cloudy 10 - - - -
27/10:13pm 11.6 W 17 21 1012.6 - 6.6 - Partly cloudy 5 - - - -
27/10:00pm 11.8 WSW 20 31 1012.8 - 6.0 - Partly cloudy 10 - - - -
27/09:55pm 12.0 WSW 19 31 1012.8 - 6.0 - Partly cloudy 10 - - - -
27/09:30pm 12.0 WSW 15 22 1012.8 - 5.8 - Partly cloudy 10 - - - -
27/09:24pm 12.4 WSW 16 26 1012.8 - 5.8 - Partly cloudy 10 - - - -
27/09:00pm 12.6 WSW 16 22 1012.6 - 5.8 - Partly cloudy 10 - - - -
27/08:30pm 11.4 WSW 14 20 1012.8 - 5.8 - Partly cloudy 10 - - - -
27/08:00pm 12.3 WSW 15 20 1012.5 - 5.8 - - 10 - - - -
27/07:30pm 12.9 WSW 17 24 1012.3 - 5.8 - - 10 - - - -
27/07:00pm 12.2 WSW 13 17 1012.2 - 5.8 - Partly cloudy 10 - - - -
27/06:30pm 12.5 WSW 16 24 1012.0 - 5.8 - Partly cloudy 10 - - - -
27/06:00pm 12.6 WSW 14 19 1011.6 - 5.8 - Cloudy 10 - - - -
27/05:30pm 11.8 W 12 16 1011.2 - 5.8 - Partly cloudy 10 - - - -
27/05:00pm 12.6 WSW 14 18 1010.8 - 5.8 - Partly cloudy 10 - - - -
27/04:30pm 13.0 WSW 15 20 1010.8 - 5.8 - Partly cloudy 10 - - - -
27/04:00pm 13.8 SW 18 27 1010.3 - 5.8 - Partly cloudy 10 - - - -
27/03:32pm 13.6 SW 21 31 1009.7 - 5.8 - Partly cloudy 10 - - - -
27/03:30pm 13.6 SW 22 31 1009.7 - 5.8 - Partly cloudy 10 - - - -
27/03:00pm 14.2 WSW 19 30 1009.4 - 5.8 Recent precip. Mostly cloudy 10 - - - -
27/02:59pm 14.1 WSW 19 30 1009.3 - 5.8 - Partly cloudy 10 - - - -
27/02:35pm 13.2 WSW 17 25 1009.2 - 5.8 - Partly cloudy 10 - - - -
27/02:30pm 12.8 WSW 19 28 1009.2 - 5.8 - Partly cloudy 10 - - - -
27/02:15pm 11.4 WSW 23 35 1009.2 - 5.4 - Partly cloudy 5 - - - -
27/02:03pm 13.1 W 21 31 1009.0 - 4.6 - Partly cloudy 10 - - - -
27/02:00pm 13.2 W 23 31 1008.9 - 4.6 - Partly cloudy 10 - - - -
27/01:35pm 12.8 W 20 30 1008.8 - 4.6 - Partly cloudy 10 - - - -
27/01:30pm 13.4 W 19 26 1008.8 - 4.6 - Partly cloudy 10 - - - -
27/01:08pm 12.3 WSW 21 31 1009.2 - 4.4 - Partly cloudy 10 - - - -
27/01:00pm 12.9 WSW 25 32 1008.8 - 4.2 - Partly cloudy 10 - - - -
27/12:35pm 12.6 WSW 23 37 1009.1 - 4.2 - Partly cloudy 10 - - - -
27/12:30pm 12.7 WSW 22 31 1009.0 - 4.2 - Partly cloudy 10 - - - -
27/12:23pm 13.4 WSW 20 31 1009.1 - 4.2 - Partly cloudy 9 - - - -
27/12:14pm 13.6 WSW 19 26 1009.1 - 4.2 - Partly cloudy 10 - - - -
27/12:02pm 12.6 WSW 19 29 1009.4 - 4.2 - Partly cloudy 4 - - - -
27/12:00pm 12.2 WSW 20 29 1009.3 - 4.2 Rain Cloudy 4 - - - -
27/11:55am 11.9 WSW 18 29 1009.4 - 4.0 - Partly cloudy 5 - - - -
27/11:54am 12.6 WSW 17 27 1009.5 - 3.6 - Partly cloudy 9 - - - -
27/11:30am 11.4 WSW 14 19 1009.5 - 3.4 - Partly cloudy 10 - - - -
27/11:27am 11.2 WSW 14 19 1009.7 - 3.4 - Partly cloudy 10 - - - -
27/11:04am 11.2 WSW 21 33 1010.1 - 2.8 - Partly cloudy 3 - - - -
27/11:00am 11.3 W 19 33 1010.1 - 2.6 - Partly cloudy 5 - - - -
27/10:57am 13.7 W 15 26 1009.9 - 2.0 - Partly cloudy 10 - - - -
27/10:30am 12.3 SW 15 22 1009.7 - 2.0 - Partly cloudy 10 - - - -
27/10:18am 11.8 SW 17 27 1010.1 - 2.0 - Partly cloudy 9 - - - -
27/10:16am 11.9 WSW 18 27 1010.1 - 2.0 - Partly cloudy 9 - - - -
27/10:00am 12.4 W 14 19 1009.9 - 1.8 - Partly cloudy 3 - - - -
27/09:56am 12.7 WNW 12 19 1010.0 - 1.4 - Partly cloudy 4 - - - -
27/09:30am 12.4 WNW 14 18 1009.4 - 0.0 - Partly cloudy 10 - - - -
27/09:00am 12.0 W 15 20 1009.5 - 6.2 Recent precip. Mostly cloudy 10 - - - -
27/08:41am 12.1 W 15 27 1010.0 - 5.8 - Partly cloudy 6 - - - -
27/08:30am 12.4 WSW 10 14 1009.6 - 5.4 - Partly cloudy 10 - - - -
27/08:27am 12.2 WSW 10 14 1009.5 - 5.4 - Partly cloudy 10 - - - -
27/08:04am 12.2 NW 7 19 1009.4 - 4.2 - Partly cloudy 5 - - - -
27/08:00am 11.3 NW 5 7 1009.4 - 3.6 - Partly cloudy 10 - - - -
27/07:30am 11.3 W 9 11 1009.4 - 3.6 - - 10 - - - -
27/07:00am 11.4 W 12 14 1009.5 - 3.6 - - 10 - - - -
27/06:30am 11.5 WNW 10 12 1009.6 - 3.6 - Partly cloudy 10 - - - -
27/06:00am 11.3 W 9 11 1009.8 - 3.6 - Mostly clear 10 - - - -
27/05:30am 11.2 NW 9 11 1010.1 - 3.6 - Partly cloudy 10 - - - -
27/05:00am 11.6 WNW 9 11 1009.9 - 3.6 - Partly cloudy 10 - - - -
27/04:30am 11.6 WNW 11 14 1009.8 - 3.2 - Partly cloudy 10 - - - -
27/04:09am 11.9 W 13 17 1009.9 - 3.2 - Partly cloudy 10 - - - -
27/04:00am 11.7 W 16 22 1009.7 - 3.2 - Partly cloudy 6 - - - -
27/03:49am 12.1 WNW 15 27 1010.0 - 2.8 - Partly cloudy 5 - - - -
27/03:30am 11.5 WNW 10 13 1009.9 - 2.2 - Partly cloudy 10 - - - -
27/03:00am 11.4 NW 11 15 1010.3 - 2.2 Recent precip. Partly cloudy 10 - - - -
27/02:30am 11.4 NW 11 15 1010.2 - 2.2 - Partly cloudy 10 - - - -
27/02:06am 11.5 WNW 13 17 1010.5 - 1.8 - Partly cloudy 7 - - - -
27/02:00am 11.7 WNW 15 24 1010.7 - 1.4 - Partly cloudy 6 - - - -
27/01:48am 12.3 NW 11 16 1010.7 - 0.8 - Partly cloudy 5 - - - -
27/01:30am 11.8 NNW 9 11 1010.2 - 0.0 - - 10 - - - -
27/01:00am 11.7 NW 11 15 1010.7 - 0.0 - - 10 - - - -
27/12:30am 11.9 NNW 11 15 1011.0 - 0.0 - - 10 - - - -
27/12:00am 12.5 NNW 12 17 1011.2 - 0.0 - Mostly clear 10 - - - -
 
Date/Time
CST
Temp

°C
Wind Pressure Rain
since 9am
mm
Weather Cloud Vis
km
Sea
Height
m
Swell
Dir
 
Speed
knots
Gust
knots
hPa Trend Height
m
Period
s
Dir
26/11:30pm 12.5 NW 10 13 1011.3 - 0.0 - Partly cloudy 10 - - - -
26/11:00pm 12.3 NNW 9 13 1011.3 - 0.0 - - 10 - - - -
26/10:30pm 11.7 NNW 6 8 1011.8 - 0.0 - Partly cloudy 10 - - - -
26/10:00pm 10.8 WNW 4 5 1012.2 - 0.0 - - 10 - - - -
26/09:30pm 10.8 NW 8 11 1012.1 - 0.0 - - 10 - - - -
26/09:00pm 11.8 WNW 9 11 1012.0 - 0.0 - - 10 - - - -
26/08:30pm 11.5 WNW 9 11 1012.0 - 0.0 - - 10 - - - -
26/08:00pm 11.9 WNW 9 11 1012.1 - 0.0 - - 10 - - - -
26/07:30pm 12.5 WNW 8 10 1012.2 - 0.0 - Partly cloudy 10 - - - -
26/07:00pm 13.1 WNW 5 6 1012.0 - 0.0 - Partly cloudy 10 - - - -
26/06:30pm 13.3 NW 7 9 1012.0 - 0.0 - Cloudy 10 - - - -
26/06:00pm 13.3 NW 8 10 1011.7 - 0.0 - Cloudy 10 - - - -
26/05:30pm 13.2 NW 7 8 1011.4 - 0.0 - Partly cloudy 10 - - - -
26/05:00pm 13.3 WNW 10 14 1011.1 - 0.0 - Partly cloudy 10 - - - -
26/04:30pm 14.8 WNW 8 15 1011.1 - 0.0 - Partly cloudy 10 - - - -
26/04:00pm 15.5 WNW 10 13 1010.9 - 0.0 - Partly cloudy 10 - - - -
26/03:30pm 16.9 WNW 10 15 1010.6 - 0.0 - Partly cloudy 10 - - - -
26/03:00pm 17.1 W 11 15 1010.4 - 0.0 - Cloudy 10 - - - -
26/02:30pm 16.2 WNW 11 15 1010.3 - 0.0 - Cloudy 10 - - - -
26/02:00pm 16.8 W 12 15 1010.1 - 0.0 - Partly cloudy 10 - - - -
26/01:30pm 17.6 WSW 8 14 1010.3 - 0.0 - Partly cloudy 10 - - - -
26/01:00pm 16.2 W 8 11 1010.7 - 0.0 - Partly cloudy 10 - - - -
26/12:30pm 16.3 W 9 11 1010.9 - 0.0 - Partly cloudy 10 - - - -
26/12:00pm 17.2 WSW 10 13 1011.0 - 0.0 - Mostly clear 10 - - - -
26/11:30am 16.1 WSW 9 13 1011.3 - 0.0 - Partly cloudy 10 - - - -
26/11:00am 16.9 WSW 8 11 1011.3 - 0.0 - - 10 - - - -
26/10:30am 16.6 SW 7 10 1011.5 - 0.0 - - 10 - - - -
26/10:00am 15.8 WSW 8 9 1011.3 - 0.0 - - 10 - - - -
26/09:30am 15.4 W 7 9 1011.2 - 0.0 - - 10 - - - -
26/09:00am 14.0 W 6 8 1011.0 - 8.8 - Mostly clear 10 - - - -
26/08:30am 13.3 WSW 6 8 1010.6 - 8.8 - Partly cloudy 10 - - - -
26/08:00am 11.3 W 6 8 1010.4 - 8.8 - - 10 - - - -
26/07:30am 10.6 W 9 11 1010.4 - 8.8 - - 10 - - - -
26/07:00am 10.6 W 8 9 1010.2 - 8.8 - - 10 - - - -
26/06:30am 10.7 W 8 10 1010.2 - 8.8 - - 10 - - - -
26/06:00am 10.6 W 8 9 1009.9 - 8.8 - - 10 - - - -
26/05:30am 11.1 WSW 9 11 1009.8 - 8.8 - Partly cloudy 10 - - - -
26/05:00am 11.6 WSW 9 11 1009.7 - 8.8 - Partly cloudy 10 - - - -
26/04:30am 11.3 WSW 8 9 1009.4 - 8.8 - - 10 - - - -
26/04:00am 11.3 W 8 10 1009.3 - 8.8 - Partly cloudy 10 - - - -
26/03:30am 11.5 W 7 9 1009.2 - 8.8 - Partly cloudy 10 - - - -
26/03:00am 12.3 WSW 7 9 1009.1 - 8.8 Recent precip. Mostly cloudy 10 - - - -
26/02:30am 12.6 WSW 7 9 1009.1 - 8.6 - Partly cloudy 10 - - - -
26/02:00am 13.0 WSW 8 10 1008.8 - 8.6 - Partly cloudy 10 - - - -
26/01:30am 13.3 W 9 11 1008.6 - 8.6 - Partly cloudy 10 - - - -
26/01:00am 13.0 W 7 9 1008.6 - 8.6 - Cloudy 10 - - - -
26/12:30am 13.1 W 4 5 1008.7 - 8.6 - Partly cloudy 10 - - - -
26/12:00am 13.2 SW 5 7 1008.6 - 8.6 - Cloudy 10 - - - -
 
Date/Time
CST
Temp

°C
Wind Pressure Rain
since 9am
mm
Weather Cloud Vis
km
Sea
Height
m
Swell
Dir
 
Speed
knots
Gust
knots
hPa Trend Height
m
Period
s
Dir
25/11:30pm 13.2 WSW 6 7 1008.5 - 8.6 - Partly cloudy 10 - - - -
25/11:00pm 13.3 WSW 7 9 1008.3 - 8.6 - Partly cloudy 10 - - - -
25/10:30pm 11.9 WSW 5 6 1008.1 - 8.6 - Partly cloudy 10 - - - -
25/10:00pm 13.0 SW 5 6 1008.0 - 8.6 - Cloudy 10 - - - -
25/09:30pm 13.4 SW 4 5 1007.8 - 8.6 - Partly cloudy 10 - - - -
25/09:00pm 13.5 SW 5 7 1008.1 - 8.4 Rain Cloudy 10 - - - -
25/08:45pm 13.5 SW 6 7 1008.2 - 8.2 - Partly cloudy 8 - - - -
25/08:30pm 13.5 WSW 5 8 1008.2 - 7.6 - Partly cloudy 2 - - - -
25/08:21pm 13.7 WSW 6 8 1008.3 - 6.8 - Partly cloudy 5 - - - -
25/08:12pm 13.8 WNW 2 5 1007.8 - 5.8 - Partly cloudy 10 - - - -
25/08:00pm 13.8 N 3 4 1007.6 - 5.6 - Partly cloudy 5 - - - -
25/07:30pm 14.1 SW 5 6 1007.4 - 4.4 - Partly cloudy 4 - - - -
25/07:25pm 14.1 SW 5 6 1007.3 - 4.4 - Partly cloudy 5 - - - -
25/07:13pm 14.1 SW 1 4 1007.1 - 4.4 - Partly cloudy 10 - - - -
25/07:04pm 14.1 SW 2 5 1007.1 - 4.4 - Partly cloudy 6 - - - -
25/07:00pm 14.1 SW 4 6 1007.0 - 4.4 - Partly cloudy 5 - - - -
25/06:57pm 14.1 SSW 5 6 1007.0 - 4.4 - Partly cloudy 5 - - - -
25/06:30pm 14.2 SSW 7 9 1006.7 - 4.2 - Partly cloudy 10 - - - -
25/06:00pm 14.5 S 7 8 1006.5 - 4.2 Recent precip. Cloudy 10 - - - -
25/05:46pm 14.5 SSW 4 8 1006.6 - 4.2 - Partly cloudy 9 - - - -
25/05:39pm 14.6 SW 3 4 1006.5 - 4.2 - Partly cloudy 7 - - - -
25/05:30pm 14.6 SSW 4 5 1006.4 - 4.2 - Partly cloudy 4 - - - -
25/05:04pm 14.6 WNW 7 9 1006.6 - 2.2 - Partly cloudy 2 - - - -
25/05:00pm 14.7 WNW 7 9 1006.6 - 1.6 - Partly cloudy 3 - - - -
25/04:55pm 14.9 WNW 7 9 1006.6 - 0.6 - Partly cloudy 5 - - - -
25/04:30pm 15.2 WNW 7 11 1006.4 - 0.2 - Cloudy 10 - - - -
25/04:13pm 15.1 WNW 8 11 1006.3 - 0.2 - Partly cloudy 10 - - - -
25/04:00pm 15.0 NW 8 12 1006.4 - 0.2 - Partly cloudy 10 - - - -
25/03:30pm 15.1 NW 11 14 1006.2 - 0.0 - Cloudy 10 - - - -
25/03:00pm 15.6 NW 13 17 1006.4 - 0.0 - Cloudy 10 - - - -
25/02:30pm 17.1 NW 14 17 1006.2 - 0.0 - Partly cloudy 10 - - - -
25/02:00pm 17.8 NW 14 20 1006.2 - 0.0 - Partly cloudy 10 - - - -
25/01:30pm 17.3 NW 15 21 1006.4 - 0.0 - Partly cloudy 10 - - - -
25/01:00pm 17.5 NNW 15 20 1006.3 - 0.0 - - 10 - - - -
25/12:30pm 16.9 NW 16 21 1006.8 - 0.0 - Partly cloudy 10 - - - -
25/12:00pm 15.8 NNW 17 22 1007.3 - 0.0 - Cloudy 10 - - - -
25/11:30am 17.1 NNW 20 28 1007.7 - 0.0 - Partly cloudy 10 - - - -
25/11:00am 16.5 NNW 20 26 1008.0 - 0.0 - Partly cloudy 10 - - - -
25/10:30am 15.6 NNW 17 22 1008.3 - 0.0 - Partly cloudy 10 - - - -
25/10:00am 15.1 NNW 18 25 1008.6 - 0.0 - Partly cloudy 10 - - - -
25/09:30am 14.2 NNW 18 24 1008.2 - 0.0 - Partly cloudy 10 - - - -
25/09:00am 13.6 NNW 17 23 1008.6 - 1.4 - Cloudy 10 - - - -
25/08:30am 13.7 NNW 17 23 1008.8 - 1.4 - Partly cloudy 10 - - - -
25/08:00am 13.6 NNW 18 24 1008.9 - 1.4 - Cloudy 10 - - - -
25/07:30am 13.8 NNW 20 27 1009.0 - 1.4 - - 10 - - - -
25/07:00am 14.2 NNW 19 24 1008.7 - 1.4 - Partly cloudy 10 - - - -
25/06:30am 14.7 NNW 18 25 1008.8 - 1.4 - Cloudy 10 - - - -
25/06:00am 14.7 NNW 17 23 1009.2 - 1.4 Recent precip. Cloudy 10 - - - -
25/05:30am 14.7 NNW 13 16 1008.9 - 1.4 - Partly cloudy 10 - - - -
25/05:00am 14.5 NNW 14 19 1009.1 - 1.2 - Cloudy 10 - - - -
25/04:30am 14.9 NNW 14 18 1009.2 - 1.2 - Partly cloudy 10 - - - -
25/04:00am 14.7 NNW 14 19 1009.2 - 1.2 - Partly cloudy 10 - - - -
25/03:30am 14.3 NNW 12 15 1009.6 - 1.2 - Cloudy 10 - - - -
25/03:00am 14.2 NNW 14 19 1010.1 - 1.2 - Mostly cloudy 10 - - - -
25/02:30am 14.5 NNW 14 17 1010.5 - 1.2 - Cloudy 10 - - - -
25/02:00am 15.1 NNW 14 19 1010.7 - 1.2 - Cloudy 10 - - - -

Other Formats:

Comma delimited format used in spreadsheet applications
http://www.bom.gov.au/fwo/IDS60701/IDS60701.95661.axf

JavaScript Object Notation format (JSON) in row-major order
http://www.bom.gov.au/fwo/IDS60701/IDS60701.95661.json